createdAt,value
2018-06-19T00:04:56.086Z,14.39
2018-06-19T00:05:35.025Z,14.41
2018-06-19T00:07:29.787Z,14.44
2018-06-19T00:08:29.697Z,14.35
2018-06-19T00:09:29.623Z,14.34
2018-06-19T00:10:29.543Z,14.42
2018-06-19T00:11:29.480Z,14.35
2018-06-19T00:12:29.395Z,14.38
2018-06-19T00:13:29.329Z,14.38
2018-06-19T00:14:29.245Z,14.41
2018-06-19T00:15:29.181Z,14.28
2018-06-19T00:16:29.098Z,14.29
2018-06-19T00:17:29.028Z,14.23
2018-06-19T00:18:28.957Z,14.14
2018-06-19T00:19:28.884Z,14.13
2018-06-19T00:20:28.799Z,14.03
2018-06-19T00:21:28.735Z,13.96
2018-06-19T00:22:28.651Z,13.94
2018-06-19T00:23:28.582Z,13.87
2018-06-19T00:24:28.502Z,13.81
2018-06-19T00:25:28.439Z,13.80
2018-06-19T00:26:28.348Z,13.73
2018-06-19T00:27:28.282Z,13.74
2018-06-19T00:28:28.199Z,13.66
2018-06-19T00:29:28.132Z,13.59
2018-06-19T00:30:28.050Z,13.66
2018-06-19T00:31:27.984Z,13.76
2018-06-19T00:32:27.902Z,13.70
2018-06-19T00:33:27.840Z,13.74
2018-06-19T00:34:27.756Z,13.83
2018-06-19T00:35:27.685Z,13.78
2018-06-19T00:36:27.600Z,13.78
2018-06-19T00:37:27.534Z,13.77
2018-06-19T00:38:27.449Z,13.65
2018-06-19T00:39:27.383Z,13.61
2018-06-19T00:40:27.301Z,13.48
2018-06-19T00:41:27.230Z,13.47
2018-06-19T00:42:27.149Z,13.50
2018-06-19T00:43:27.090Z,13.50
2018-06-19T00:44:27.001Z,13.53
2018-06-19T00:45:26.932Z,13.47
2018-06-19T00:46:26.859Z,13.47
2018-06-19T00:47:26.783Z,13.47
2018-06-19T00:48:26.699Z,13.56
2018-06-19T00:49:26.634Z,13.50
2018-06-19T00:50:26.560Z,13.43
2018-06-19T00:51:26.484Z,13.40
2018-06-19T00:52:26.402Z,13.32
2018-06-19T00:53:26.334Z,13.45
2018-06-19T00:54:26.247Z,13.40
2018-06-19T00:55:26.190Z,13.41
2018-06-19T00:56:26.142Z,13.41
2018-06-19T00:57:26.035Z,13.38
2018-06-19T00:58:25.950Z,13.41
2018-06-19T00:59:25.893Z,13.40
2018-06-19T01:00:25.802Z,13.52
2018-06-19T01:01:25.735Z,13.52
2018-06-19T01:02:25.648Z,13.50
2018-06-19T01:03:25.579Z,13.61
2018-06-19T01:04:25.501Z,13.53
2018-06-19T01:05:25.433Z,13.50
2018-06-19T01:06:25.349Z,13.52
2018-06-19T01:07:25.277Z,13.55
2018-06-19T01:08:25.200Z,13.65
2018-06-19T01:09:25.132Z,13.61
2018-06-19T01:10:25.050Z,13.56
2018-06-19T01:11:24.984Z,13.50
2018-06-19T01:12:24.899Z,13.38
2018-06-19T01:13:24.834Z,13.38
2018-06-19T01:14:24.750Z,13.36
2018-06-19T01:15:24.685Z,13.32
2018-06-19T01:16:24.599Z,13.29
2018-06-19T01:17:24.532Z,13.29
2018-06-19T01:18:24.450Z,13.24
2018-06-19T01:19:24.381Z,13.19
2018-06-19T01:20:24.298Z,13.24
2018-06-19T01:21:24.229Z,13.29
2018-06-19T01:22:24.146Z,13.22
2018-06-19T01:23:24.083Z,13.06
2018-06-19T01:24:23.999Z,13.00
2018-06-19T01:25:23.939Z,13.02
2018-06-19T01:26:23.892Z,13.03
2018-06-19T01:27:23.781Z,13.02
2018-06-19T01:28:23.697Z,13.00
2018-06-19T01:29:23.627Z,13.11
2018-06-19T01:30:23.545Z,13.03
2018-06-19T01:31:23.478Z,13.17
2018-06-19T01:32:23.395Z,13.14
2018-06-19T01:33:23.328Z,13.14
2018-06-19T01:34:23.246Z,13.15
2018-06-19T01:35:23.177Z,13.06
2018-06-19T01:36:23.094Z,13.09
2018-06-19T01:37:23.029Z,13.14
2018-06-19T01:38:22.945Z,13.17
2018-06-19T01:39:22.876Z,13.14
2018-06-19T01:40:22.793Z,13.17
2018-06-19T01:41:22.727Z,13.14
2018-06-19T01:42:22.643Z,13.07
2018-06-19T01:43:22.577Z,13.28
2018-06-19T01:44:22.494Z,13.17
2018-06-19T01:45:22.434Z,13.21
2018-06-19T01:46:22.346Z,13.19
2018-06-19T01:47:22.273Z,13.21
2018-06-19T01:48:22.193Z,13.28
2018-06-19T01:49:22.120Z,13.15
2018-06-19T01:50:22.043Z,13.27
2018-06-19T01:51:21.972Z,13.28
2018-06-19T01:52:21.890Z,13.25
2018-06-19T01:53:21.820Z,13.27
2018-06-19T01:54:21.742Z,13.21
2018-06-19T01:55:21.671Z,13.28
2018-06-19T01:56:21.588Z,13.17
2018-06-19T01:57:21.518Z,13.25
2018-06-19T01:58:21.438Z,13.28
2018-06-19T01:59:21.371Z,13.29
2018-06-19T02:00:21.285Z,13.24
2018-06-19T02:01:21.223Z,13.25
2018-06-19T02:02:21.136Z,13.28
2018-06-19T02:03:21.069Z,13.22
2018-06-19T02:04:20.985Z,13.21
2018-06-19T02:05:20.918Z,13.10
2018-06-19T02:06:20.838Z,13.19
2018-06-19T02:07:20.769Z,13.17
2018-06-19T02:08:20.684Z,13.14
2018-06-19T02:09:20.617Z,13.24
2018-06-19T02:10:20.532Z,13.21
2018-06-19T02:11:20.466Z,13.15
2018-06-19T02:12:20.391Z,13.22
2018-06-19T02:13:20.310Z,13.17
2018-06-19T02:14:20.231Z,13.17
2018-06-19T02:15:20.163Z,13.09
2018-06-19T02:16:20.080Z,13.18
2018-06-19T02:17:20.013Z,13.10
2018-06-19T02:18:19.931Z,13.09
2018-06-19T02:19:19.861Z,13.15
2018-06-19T02:20:19.778Z,13.14
2018-06-19T02:21:19.709Z,13.17
2018-06-19T02:22:19.627Z,13.21
2018-06-19T02:23:19.560Z,13.22
2018-06-19T02:24:19.480Z,13.15
2018-06-19T02:25:19.417Z,13.22
2018-06-19T02:26:19.324Z,13.04
2018-06-19T02:27:19.258Z,13.00
2018-06-19T02:28:19.174Z,13.03
2018-06-19T02:29:19.105Z,13.02
2018-06-19T02:30:19.027Z,13.14
2018-06-19T02:31:18.952Z,13.17
2018-06-19T02:32:18.887Z,13.10
2018-06-19T02:33:18.806Z,13.10
2018-06-19T02:34:18.723Z,13.19
2018-06-19T02:35:18.658Z,13.18
2018-06-19T02:36:18.571Z,13.25
2018-06-19T02:37:18.503Z,13.28
2018-06-19T02:38:18.421Z,13.25
2018-06-19T02:39:18.357Z,13.37
2018-06-19T02:40:18.273Z,13.32
2018-06-19T02:41:18.209Z,13.32
2018-06-19T02:42:18.121Z,13.24
2018-06-19T02:43:18.052Z,13.27
2018-06-19T02:44:17.969Z,13.28
2018-06-19T02:45:17.897Z,13.29
2018-06-19T02:46:17.814Z,13.25
2018-06-19T02:47:17.751Z,13.25
2018-06-19T02:48:17.666Z,13.29
2018-06-19T02:49:17.596Z,13.29
2018-06-19T02:50:17.518Z,13.25
2018-06-19T02:51:17.450Z,13.28
2018-06-19T02:52:17.365Z,13.27
2018-06-19T02:53:17.298Z,13.24
2018-06-19T02:54:17.217Z,13.29
2018-06-19T02:55:17.149Z,13.33
2018-06-19T02:56:17.061Z,13.37
2018-06-19T02:57:16.998Z,13.37
2018-06-19T02:58:16.914Z,13.44
2018-06-19T02:59:16.897Z,13.38
2018-06-19T03:00:16.823Z,13.48
2018-06-19T03:01:16.697Z,13.47
2018-06-19T03:02:16.609Z,13.47
2018-06-19T03:03:16.542Z,13.61
2018-06-19T03:04:16.454Z,13.48
2018-06-19T03:05:16.390Z,13.59
2018-06-19T03:06:16.303Z,13.63
2018-06-19T03:07:16.242Z,13.66
2018-06-19T03:08:16.155Z,13.76
2018-06-19T03:09:16.111Z,13.77
2018-06-19T03:10:16.006Z,13.68
2018-06-19T03:11:15.935Z,13.77
2018-06-19T03:12:15.857Z,13.78
2018-06-19T03:13:15.789Z,13.76
2018-06-19T03:14:15.703Z,13.87
2018-06-19T03:15:15.647Z,13.84
2018-06-19T03:16:15.557Z,13.99
2018-06-19T03:17:15.499Z,13.94
2018-06-19T03:18:15.403Z,13.91
2018-06-19T03:19:15.333Z,13.99
2018-06-19T03:20:15.254Z,13.98
2018-06-19T03:21:15.186Z,14.09
2018-06-19T03:22:15.106Z,14.03
2018-06-19T03:23:15.038Z,14.11
2018-06-19T03:24:14.952Z,14.13
2018-06-19T03:25:14.899Z,14.14
2018-06-19T03:26:14.803Z,14.23
2018-06-19T03:27:14.740Z,14.16
2018-06-19T03:28:14.652Z,14.29
2018-06-19T03:29:14.582Z,14.24
2018-06-19T03:30:14.525Z,14.20
2018-06-19T03:31:14.429Z,14.14
2018-06-19T03:32:14.356Z,14.13
2018-06-19T03:33:14.287Z,14.27
2018-06-19T03:34:14.199Z,14.20
2018-06-19T03:35:14.133Z,14.24
2018-06-19T03:36:14.053Z,14.29
2018-06-19T03:37:13.980Z,14.38
2018-06-19T03:38:13.899Z,14.35
2018-06-19T03:39:13.831Z,14.39
2018-06-19T03:40:13.754Z,14.36
2018-06-19T03:41:13.680Z,14.39
2018-06-19T03:42:13.599Z,14.34
2018-06-19T03:43:13.531Z,14.32
2018-06-19T03:44:13.448Z,14.35
2018-06-19T03:45:13.379Z,14.39
2018-06-19T03:46:13.294Z,14.34
2018-06-19T03:47:13.229Z,14.34
2018-06-19T03:48:13.146Z,14.44
2018-06-19T03:49:13.079Z,14.47
2018-06-19T03:50:13.012Z,14.46
2018-06-19T03:51:12.928Z,14.47
2018-06-19T03:52:12.847Z,14.47
2018-06-19T03:53:12.778Z,14.44
2018-06-19T03:54:12.699Z,14.44
2018-06-19T03:55:12.627Z,14.39
2018-06-19T03:56:12.545Z,14.39
2018-06-19T03:57:12.477Z,14.41
2018-06-19T03:58:12.396Z,14.41
2018-06-19T03:59:12.328Z,14.46
2018-06-19T04:00:12.246Z,14.53
2018-06-19T04:01:12.182Z,14.59
2018-06-19T04:02:12.096Z,14.56
2018-06-19T04:03:12.029Z,14.65
2018-06-19T04:04:11.946Z,14.61
2018-06-19T04:05:11.874Z,14.67
2018-06-19T04:06:11.797Z,14.60
2018-06-19T04:07:11.728Z,14.67
2018-06-19T04:08:11.644Z,14.74
2018-06-19T04:09:11.576Z,14.72
2018-06-19T04:10:11.499Z,14.69
2018-06-19T04:11:11.427Z,14.75
2018-06-19T04:12:11.344Z,14.74
2018-06-19T04:13:11.276Z,14.80
2018-06-19T04:14:11.195Z,14.87
2018-06-19T04:15:11.130Z,14.85
2018-06-19T04:16:11.044Z,14.94
2018-06-19T04:17:11.032Z,14.91
2018-06-19T04:18:10.897Z,15.03
2018-06-19T04:19:10.828Z,15.05
2018-06-19T04:20:10.743Z,14.98
2018-06-19T04:21:10.680Z,15.03
2018-06-19T04:22:10.594Z,15.13
2018-06-19T04:23:10.531Z,15.10
2018-06-19T04:24:10.447Z,15.10
2018-06-19T04:25:10.376Z,15.09
2018-06-19T04:26:10.296Z,15.16
2018-06-19T04:27:10.229Z,15.15
2018-06-19T04:28:10.148Z,15.18
2018-06-19T04:29:10.083Z,15.26
2018-06-19T04:30:09.996Z,15.26
2018-06-19T04:31:09.930Z,15.24
2018-06-19T04:32:09.847Z,15.39
2018-06-19T04:33:09.847Z,15.48
2018-06-19T04:34:09.699Z,15.49
2018-06-19T04:35:09.636Z,15.48
2018-06-19T04:36:09.548Z,15.53
2018-06-19T04:37:09.481Z,15.64
2018-06-19T04:38:09.401Z,15.75
2018-06-19T04:39:09.364Z,15.71
2018-06-19T04:40:09.248Z,15.79
2018-06-19T04:41:09.184Z,15.88
2018-06-19T04:42:09.181Z,15.88
2018-06-19T04:43:09.043Z,16.04
2018-06-19T04:44:08.950Z,16.01
2018-06-19T04:45:08.887Z,16.12
2018-06-19T04:46:08.861Z,16.15
2018-06-19T04:47:08.734Z,16.18
2018-06-19T04:48:08.652Z,16.29
2018-06-19T04:49:08.585Z,16.30
2018-06-19T04:50:08.504Z,16.41
2018-06-19T04:51:08.443Z,16.40
2018-06-19T04:52:08.352Z,16.34
2018-06-19T04:53:08.340Z,16.44
2018-06-19T04:54:08.204Z,16.42
2018-06-19T04:55:08.141Z,16.47
2018-06-19T04:56:08.057Z,16.45
2018-06-19T04:57:08.063Z,16.55
2018-06-19T04:58:07.909Z,16.47
2018-06-19T04:59:07.842Z,16.60
2018-06-19T05:00:07.760Z,16.55
2018-06-19T05:01:07.780Z,16.57
2018-06-19T05:02:07.611Z,16.66
2018-06-19T05:03:07.589Z,16.62
2018-06-19T05:04:07.464Z,16.65
2018-06-19T05:05:07.500Z,16.66
2018-06-19T05:06:07.318Z,16.66
2018-06-19T05:07:07.253Z,16.80
2018-06-19T05:08:07.170Z,16.80
2018-06-19T05:09:07.118Z,16.84
2018-06-19T05:10:07.018Z,16.81
2018-06-19T05:11:06.950Z,16.80
2018-06-19T05:12:06.871Z,16.84
2018-06-19T05:13:06.805Z,16.84
2018-06-19T05:14:06.726Z,16.88
2018-06-19T05:15:06.655Z,16.88
2018-06-19T05:16:06.574Z,16.92
2018-06-19T05:17:06.512Z,16.95
2018-06-19T05:18:06.428Z,16.96
2018-06-19T05:19:06.360Z,16.99
2018-06-19T05:20:06.285Z,16.95
2018-06-19T05:21:06.210Z,16.99
2018-06-19T05:22:06.132Z,16.93
2018-06-19T05:23:06.062Z,17.02
2018-06-19T05:24:05.983Z,16.95
2018-06-19T05:25:05.920Z,17.03
2018-06-19T05:26:05.835Z,17.05
2018-06-19T05:27:05.772Z,17.11
2018-06-19T05:28:05.687Z,17.03
2018-06-19T05:29:05.620Z,17.25
2018-06-19T05:30:05.543Z,17.21
2018-06-19T05:31:05.474Z,17.23
2018-06-19T05:32:05.395Z,17.18
2018-06-19T05:33:05.330Z,17.26
2018-06-19T05:34:05.244Z,17.21
2018-06-19T05:35:05.222Z,17.18
2018-06-19T05:36:05.097Z,17.26
2018-06-19T05:37:05.028Z,17.29
2018-06-19T05:38:04.952Z,17.28
2018-06-19T05:39:04.919Z,17.33
2018-06-19T05:40:04.802Z,17.32
2018-06-19T05:41:04.827Z,17.32
2018-06-19T05:42:04.654Z,17.47
2018-06-19T05:43:04.630Z,17.39
2018-06-19T05:44:04.512Z,17.50
2018-06-19T05:45:04.546Z,17.55
2018-06-19T05:46:04.360Z,17.51
2018-06-19T05:47:04.359Z,17.64
2018-06-19T05:48:04.215Z,17.63
2018-06-19T05:49:04.169Z,17.66
2018-06-19T05:50:04.067Z,17.69
2018-06-19T05:51:04.079Z,17.71
2018-06-19T05:52:03.917Z,17.63
2018-06-19T05:53:03.889Z,17.66
2018-06-19T05:54:03.770Z,17.73
2018-06-19T05:55:03.805Z,17.69
2018-06-19T05:56:03.629Z,17.76
2018-06-19T05:57:03.606Z,17.73
2018-06-19T05:58:03.475Z,17.76
2018-06-19T05:59:03.519Z,17.81
2018-06-19T06:00:03.341Z,17.84
2018-06-19T06:01:03.326Z,17.89
2018-06-19T06:02:03.184Z,17.89
2018-06-19T06:03:03.136Z,17.89
2018-06-19T06:04:03.041Z,17.92
2018-06-19T06:05:03.047Z,18.07
2018-06-19T06:06:02.890Z,18.07
2018-06-19T06:07:02.853Z,18.07
2018-06-19T06:08:02.744Z,18.10
2018-06-19T06:09:02.688Z,18.11
2018-06-19T06:10:02.598Z,18.10
2018-06-19T06:11:02.580Z,18.09
2018-06-19T06:12:02.451Z,18.09
2018-06-19T06:13:02.488Z,18.13
2018-06-19T06:14:02.301Z,18.06
2018-06-19T06:15:02.301Z,18.16
2018-06-19T06:16:02.162Z,18.19
2018-06-19T06:17:02.114Z,18.18
2018-06-19T06:18:02.013Z,18.25
2018-06-19T06:19:01.947Z,18.24
2018-06-19T06:20:01.864Z,18.28
2018-06-19T06:21:01.827Z,18.29
2018-06-19T06:22:01.724Z,18.40
2018-06-19T06:23:01.738Z,18.37
2018-06-19T06:24:01.575Z,18.53
2018-06-19T06:25:01.556Z,18.58
2018-06-19T06:26:01.425Z,18.57
2018-06-19T06:27:01.455Z,18.67
2018-06-19T06:28:01.280Z,18.62
2018-06-19T06:29:01.268Z,18.71
2018-06-19T06:30:01.134Z,18.74
2018-06-19T06:31:01.192Z,18.84
2018-06-19T06:32:00.992Z,18.98
2018-06-19T06:33:00.988Z,19.05
2018-06-19T06:34:00.841Z,19.06
2018-06-19T06:35:00.772Z,19.15
2018-06-19T06:36:00.803Z,19.21
2018-06-19T06:37:00.625Z,19.28
2018-06-19T06:38:00.629Z,19.31
2018-06-19T06:39:00.476Z,19.28
2018-06-19T06:40:00.526Z,19.36
2018-06-19T06:41:00.337Z,19.43
2018-06-19T06:42:00.331Z,19.51
2018-06-19T06:43:00.188Z,19.51
2018-06-19T06:44:00.145Z,19.61
2018-06-19T06:45:00.062Z,19.75
2018-06-19T06:46:00.054Z,19.78
2018-06-19T06:46:59.900Z,19.90
2018-06-19T06:47:59.861Z,19.97
2018-06-19T06:48:59.753Z,20.01
2018-06-19T06:49:59.774Z,20.03
2018-06-19T06:50:59.609Z,20.05
2018-06-19T06:51:59.586Z,20.24
2018-06-19T06:52:59.465Z,20.30
2018-06-19T06:53:59.495Z,20.40
2018-06-19T06:54:59.321Z,20.49
2018-06-19T06:55:59.247Z,20.57
2018-06-19T06:56:59.210Z,20.50
2018-06-19T06:57:59.100Z,20.59
2018-06-19T06:58:59.120Z,20.62
2018-06-19T06:59:58.964Z,20.51
2018-06-19T07:00:58.929Z,20.59
2018-06-19T07:01:58.819Z,20.71
2018-06-19T07:02:58.839Z,20.71
2018-06-19T07:03:58.673Z,20.62
2018-06-19T07:04:58.600Z,20.76
2018-06-19T07:05:58.529Z,20.80
2018-06-19T07:06:58.560Z,20.66
2018-06-19T07:07:58.385Z,20.66
2018-06-19T07:08:58.368Z,20.79
2018-06-19T07:09:58.275Z,20.90
2018-06-19T07:10:58.280Z,20.98
2018-06-19T07:11:58.098Z,20.96
2018-06-19T07:12:58.090Z,20.96
2018-06-19T07:13:57.953Z,20.91
2018-06-19T07:14:58.000Z,20.90
2018-06-19T07:15:57.815Z,20.91
2018-06-19T07:16:57.807Z,20.98
2018-06-19T07:17:57.662Z,20.96
2018-06-19T07:18:57.658Z,21.09
2018-06-19T07:19:57.523Z,21.05
2018-06-19T07:20:57.527Z,21.11
2018-06-19T07:21:57.387Z,21.21
2018-06-19T07:22:57.339Z,21.38
2018-06-19T07:23:57.236Z,21.41
2018-06-19T07:24:57.248Z,21.38
2018-06-19T07:25:57.173Z,21.57
2018-06-19T07:26:57.056Z,21.53
2018-06-19T07:27:56.958Z,21.54
2018-06-19T07:28:56.974Z,21.51
2018-06-19T07:29:56.817Z,21.54
2018-06-19T07:30:56.781Z,21.60
2018-06-19T07:31:56.711Z,21.45
2018-06-19T07:32:56.607Z,21.42
2018-06-19T07:33:56.599Z,21.38
2018-06-19T07:34:56.458Z,21.44
2018-06-19T07:35:56.510Z,21.38
2018-06-19T07:36:56.317Z,21.36
2018-06-19T07:37:56.395Z,21.36
2018-06-19T07:38:56.180Z,21.29
2018-06-19T07:39:56.125Z,21.29
2018-06-19T07:40:56.033Z,21.35
2018-06-19T07:41:56.036Z,21.31
2018-06-19T07:42:55.893Z,21.29
2018-06-19T07:43:55.829Z,21.19
2018-06-19T07:44:55.854Z,21.17
2018-06-19T07:45:55.679Z,21.38
2018-06-19T07:46:55.663Z,21.27
2018-06-19T07:47:55.540Z,21.26
2018-06-19T07:48:55.574Z,21.19
2018-06-19T07:49:55.397Z,21.27
2018-06-19T07:50:55.383Z,21.53
2018-06-19T07:51:55.259Z,21.69
2018-06-19T07:52:55.291Z,21.84
2018-06-19T07:53:55.119Z,22.05
2018-06-19T07:54:55.104Z,22.08
2018-06-19T07:55:54.972Z,22.23
2018-06-19T07:56:55.024Z,22.46
2018-06-19T07:57:54.832Z,22.46
2018-06-19T07:58:54.829Z,22.67
2018-06-19T07:59:54.691Z,22.75
2018-06-19T08:00:54.743Z,22.93
2018-06-19T08:01:54.551Z,22.92
2018-06-19T08:02:54.482Z,22.99
2018-06-19T08:03:54.457Z,22.94
2018-06-19T08:04:54.338Z,23.00
2018-06-19T08:05:54.364Z,22.99
2018-06-19T08:06:54.201Z,22.93
2018-06-19T08:07:54.170Z,22.78
2018-06-19T08:08:54.059Z,22.89
2018-06-19T08:09:54.081Z,22.94
2018-06-19T08:10:53.923Z,22.83
2018-06-19T08:11:53.890Z,22.81
2018-06-19T08:12:53.782Z,22.78
2018-06-19T08:13:53.809Z,22.67
2018-06-19T08:14:53.649Z,22.60
2018-06-19T08:15:53.617Z,22.59
2018-06-19T08:16:53.503Z,22.52
2018-06-19T08:17:53.521Z,22.42
2018-06-19T08:18:53.374Z,22.59
2018-06-19T08:19:53.332Z,22.60
2018-06-19T08:20:53.227Z,22.69
2018-06-19T08:21:53.244Z,22.77
2018-06-19T08:22:53.118Z,22.77
2018-06-19T08:23:53.052Z,22.78
2018-06-19T08:24:52.950Z,22.72
2018-06-19T08:25:52.963Z,22.71
2018-06-19T08:26:52.805Z,22.77
2018-06-19T08:27:52.773Z,22.72
2018-06-19T08:28:52.668Z,22.72
2018-06-19T08:29:52.690Z,22.63
2018-06-19T08:30:52.534Z,22.62
2018-06-19T08:31:52.495Z,22.67
2018-06-19T08:32:52.387Z,22.60
2018-06-19T08:33:52.409Z,22.56
2018-06-19T08:34:52.250Z,22.49
2018-06-19T08:35:52.218Z,22.53
2018-06-19T08:36:52.149Z,22.53
2018-06-19T08:37:52.045Z,22.50
2018-06-19T08:38:52.029Z,22.57
2018-06-19T08:39:51.903Z,22.46
2018-06-19T08:40:51.945Z,22.44
2018-06-19T08:41:51.780Z,22.52
2018-06-19T08:42:51.753Z,22.44
2018-06-19T08:43:51.619Z,22.54
2018-06-19T08:44:51.662Z,22.46
2018-06-19T08:45:51.484Z,22.53
2018-06-19T08:46:51.474Z,22.53
2018-06-19T08:47:51.344Z,22.39
2018-06-19T08:48:51.386Z,22.34
2018-06-19T08:49:51.205Z,22.35
2018-06-19T08:50:51.190Z,22.56
2018-06-19T08:51:51.068Z,22.74
2018-06-19T08:52:51.106Z,22.93
2018-06-19T08:53:50.925Z,23.14
2018-06-19T08:54:50.913Z,23.12
2018-06-19T08:55:50.790Z,23.04
2018-06-19T08:56:50.825Z,23.14
2018-06-19T08:57:50.649Z,23.33
2018-06-19T08:58:50.636Z,23.31
2018-06-19T08:59:50.513Z,23.34
2018-06-19T09:00:50.550Z,23.20
2018-06-19T09:01:50.372Z,23.29
2018-06-19T09:02:50.358Z,23.38
2018-06-19T09:03:50.236Z,23.34
2018-06-19T09:04:50.269Z,23.33
2018-06-19T09:05:50.098Z,23.35
2018-06-19T09:06:50.075Z,23.38
2018-06-19T09:07:49.957Z,23.31
2018-06-19T09:08:49.987Z,23.40
2018-06-19T09:09:49.821Z,23.42
2018-06-19T09:10:49.799Z,23.26
2018-06-19T09:11:49.683Z,23.18
2018-06-19T09:12:49.710Z,23.18
2018-06-19T09:13:49.547Z,23.24
2018-06-19T09:14:49.516Z,23.15
2018-06-19T09:15:49.405Z,23.14
2018-06-19T09:16:49.430Z,23.14
2018-06-19T09:17:49.270Z,23.04
2018-06-19T09:18:49.236Z,23.04
2018-06-19T09:19:49.131Z,22.92
2018-06-19T09:20:49.146Z,23.04
2018-06-19T09:21:48.989Z,23.02
2018-06-19T09:22:48.958Z,22.92
2018-06-19T09:23:48.858Z,22.94
2018-06-19T09:24:48.868Z,22.90
2018-06-19T09:25:48.726Z,22.79
2018-06-19T09:26:48.674Z,22.83
2018-06-19T09:27:48.578Z,22.90
2018-06-19T09:28:48.586Z,22.92
2018-06-19T09:29:48.444Z,22.96
2018-06-19T09:30:48.394Z,22.96
2018-06-19T09:31:48.305Z,23.07
2018-06-19T09:32:48.239Z,23.05
2018-06-19T09:33:48.167Z,23.04
2018-06-19T09:34:48.113Z,23.00
2018-06-19T09:35:48.031Z,23.09
2018-06-19T09:36:48.027Z,23.07
2018-06-19T09:37:47.899Z,23.09
2018-06-19T09:38:47.937Z,22.87
2018-06-19T09:39:47.758Z,22.72
2018-06-19T09:40:47.681Z,22.68
2018-06-19T09:41:47.652Z,22.74
2018-06-19T09:42:47.545Z,22.75
2018-06-19T09:43:47.556Z,22.79
2018-06-19T09:44:47.404Z,22.84
2018-06-19T09:45:47.368Z,22.89
2018-06-19T09:46:47.267Z,22.93
2018-06-19T09:47:47.281Z,23.00
2018-06-19T09:48:47.132Z,23.07
2018-06-19T09:49:47.089Z,23.08
2018-06-19T09:50:46.995Z,23.12
2018-06-19T09:51:46.998Z,23.11
2018-06-19T09:52:46.860Z,23.04
2018-06-19T09:53:46.811Z,23.14
2018-06-19T09:54:46.716Z,23.22
2018-06-19T09:55:46.716Z,23.12
2018-06-19T09:56:46.583Z,23.15
2018-06-19T09:57:46.531Z,23.12
2018-06-19T09:58:46.441Z,23.15
2018-06-19T09:59:46.435Z,23.12
2018-06-19T10:00:46.305Z,23.22
2018-06-19T10:01:46.349Z,23.23
2018-06-19T10:02:46.165Z,23.24
2018-06-19T10:03:47.182Z,23.17
2018-06-19T10:04:46.024Z,23.15
2018-06-19T10:05:46.181Z,23.20
2018-06-19T10:06:45.886Z,23.18
2018-06-19T10:07:45.868Z,23.18
2018-06-19T10:08:45.747Z,23.34
2018-06-19T10:09:45.785Z,23.26
2018-06-19T10:10:45.613Z,23.22
2018-06-19T10:11:45.590Z,23.33
2018-06-19T10:12:45.485Z,23.29
2018-06-19T10:13:45.505Z,23.40
2018-06-19T10:14:45.337Z,23.37
2018-06-19T10:15:45.320Z,23.27
2018-06-19T10:16:45.198Z,23.42
2018-06-19T10:17:45.223Z,23.46
2018-06-19T10:18:45.061Z,23.42
2018-06-19T10:19:45.035Z,23.50
2018-06-19T10:20:44.926Z,23.53
2018-06-19T10:21:44.941Z,23.61
2018-06-19T10:22:44.785Z,23.60
2018-06-19T10:23:44.754Z,23.74
2018-06-19T10:24:44.646Z,23.74
2018-06-19T10:25:44.700Z,23.89
2018-06-19T10:26:44.511Z,24.08
2018-06-19T10:27:44.473Z,24.17
2018-06-19T10:28:44.378Z,24.25
2018-06-19T10:29:44.388Z,24.35
2018-06-19T10:30:44.237Z,24.30
2018-06-19T10:31:44.195Z,24.30
2018-06-19T10:32:44.099Z,24.38
2018-06-19T10:33:44.104Z,24.30
2018-06-19T10:34:43.966Z,24.16
2018-06-19T10:35:43.909Z,24.22
2018-06-19T10:36:43.831Z,24.22
2018-06-19T10:37:43.829Z,24.22
2018-06-19T10:38:43.690Z,24.16
2018-06-19T10:39:43.731Z,24.11
2018-06-19T10:40:43.552Z,24.12
2018-06-19T10:41:43.540Z,24.05
2018-06-19T10:42:43.417Z,24.12
2018-06-19T10:43:43.452Z,24.10
2018-06-19T10:44:43.279Z,24.08
2018-06-19T10:45:43.262Z,24.10
2018-06-19T10:46:43.144Z,24.08
2018-06-19T10:47:43.173Z,24.12
2018-06-19T10:48:43.037Z,24.07
2018-06-19T10:49:42.983Z,24.12
2018-06-19T10:50:42.871Z,24.11
2018-06-19T10:51:42.894Z,24.26
2018-06-19T10:52:42.736Z,24.19
2018-06-19T10:53:42.704Z,24.22
2018-06-19T10:54:42.600Z,24.25
2018-06-19T10:55:42.613Z,24.25
2018-06-19T10:56:42.463Z,24.19
2018-06-19T10:57:42.421Z,24.23
2018-06-19T10:58:42.325Z,24.17
2018-06-19T10:59:42.332Z,24.20
2018-06-19T11:00:42.194Z,24.29
2018-06-19T11:01:42.142Z,24.35
2018-06-19T11:02:42.057Z,24.41
2018-06-19T11:03:42.053Z,24.48
2018-06-19T11:04:41.918Z,24.50
2018-06-19T11:05:41.963Z,24.45
2018-06-19T11:06:41.778Z,24.48
2018-06-19T11:07:41.772Z,24.50
2018-06-19T11:08:41.659Z,24.48
2018-06-19T11:09:41.682Z,24.40
2018-06-19T11:10:41.513Z,24.50
2018-06-19T11:11:41.495Z,24.45
2018-06-19T11:12:41.370Z,24.52
2018-06-19T11:13:41.402Z,24.60
2018-06-19T11:14:41.240Z,24.66
2018-06-19T11:15:41.210Z,24.80
2018-06-19T11:16:41.105Z,24.91
2018-06-19T11:17:41.124Z,25.05
2018-06-19T11:18:40.966Z,25.04
2018-06-19T11:19:40.931Z,25.09
2018-06-19T11:20:40.836Z,25.13
2018-06-19T11:21:40.842Z,25.15
2018-06-19T11:22:40.699Z,25.20
2018-06-19T11:23:40.651Z,25.55
2018-06-19T11:24:40.562Z,25.70
2018-06-19T11:25:40.572Z,25.70
2018-06-19T11:26:40.427Z,25.71
2018-06-19T11:27:40.471Z,25.75
2018-06-19T11:28:40.289Z,25.78
2018-06-19T11:29:40.280Z,25.68
2018-06-19T11:30:40.155Z,25.68
2018-06-19T11:31:40.192Z,25.59
2018-06-19T11:32:40.030Z,25.55
2018-06-19T11:33:39.999Z,25.52
2018-06-19T11:34:39.886Z,25.42
2018-06-19T11:35:39.911Z,25.55
2018-06-19T11:36:39.756Z,25.53
2018-06-19T11:37:39.714Z,25.42
2018-06-19T11:38:39.698Z,25.40
2018-06-19T11:39:39.631Z,25.50
2018-06-19T11:40:39.480Z,25.41
2018-06-19T11:41:39.441Z,25.41
2018-06-19T11:42:39.354Z,25.42
2018-06-19T11:43:39.356Z,25.38
2018-06-19T11:44:39.271Z,25.40
2018-06-19T11:45:39.262Z,25.40
2018-06-19T11:46:39.085Z,25.40
2018-06-19T11:47:39.074Z,25.35
2018-06-19T11:48:38.952Z,25.32
2018-06-19T11:49:38.982Z,25.34
2018-06-19T11:50:38.814Z,25.34
2018-06-19T11:51:38.786Z,25.31
2018-06-19T11:52:38.679Z,25.28
2018-06-19T11:53:38.700Z,25.34
2018-06-19T11:54:38.602Z,25.60
2018-06-19T11:55:38.508Z,25.77
2018-06-19T11:56:38.409Z,25.86
2018-06-19T11:57:38.419Z,26.08
2018-06-19T11:58:38.286Z,26.15
2018-06-19T11:59:38.230Z,26.21
2018-06-19T12:00:38.143Z,26.25
2018-06-19T12:01:38.141Z,26.25
2018-06-19T12:02:38.013Z,26.23
2018-06-19T12:03:38.051Z,26.16
2018-06-19T12:04:37.874Z,26.15
2018-06-19T12:05:37.859Z,26.12
2018-06-19T12:06:37.790Z,26.21
2018-06-19T12:07:37.771Z,26.15
2018-06-19T12:08:37.606Z,26.21
2018-06-19T12:09:37.579Z,26.20
2018-06-19T12:10:37.479Z,26.32
2018-06-19T12:11:37.489Z,26.38
2018-06-19T12:12:37.351Z,26.31
2018-06-19T12:13:37.299Z,26.43
2018-06-19T12:14:37.212Z,26.58
2018-06-19T12:15:37.210Z,26.53
2018-06-19T12:16:37.078Z,26.49
2018-06-19T12:17:37.123Z,26.53
2018-06-19T12:18:36.943Z,26.46
2018-06-19T12:19:36.929Z,26.40
2018-06-19T12:20:36.832Z,26.34
2018-06-19T12:21:36.849Z,26.32
2018-06-19T12:22:36.681Z,26.23
2018-06-19T12:23:36.650Z,26.24
2018-06-19T12:24:36.548Z,26.16
2018-06-19T12:25:36.569Z,26.09
2018-06-19T12:26:36.414Z,26.07
2018-06-19T12:27:36.371Z,26.11
2018-06-19T12:28:36.290Z,26.08
2018-06-19T12:29:36.353Z,26.04
2018-06-19T12:30:36.151Z,26.12
2018-06-19T12:31:36.192Z,26.05
2018-06-19T12:32:36.015Z,26.12
2018-06-19T12:33:36.001Z,26.12
2018-06-19T12:34:35.883Z,26.09
2018-06-19T12:35:35.907Z,26.20
2018-06-19T12:36:35.752Z,26.23
2018-06-19T12:37:35.720Z,26.11
2018-06-19T12:38:35.618Z,26.15
2018-06-19T12:39:35.634Z,26.08
2018-06-19T12:40:35.484Z,26.04
2018-06-19T12:41:35.480Z,26.02
2018-06-19T12:42:35.353Z,26.07
2018-06-19T12:43:35.352Z,26.04
2018-06-19T12:44:35.220Z,26.15
2018-06-19T12:45:35.270Z,26.12
2018-06-19T12:46:35.086Z,26.20
2018-06-19T12:47:35.079Z,26.21
2018-06-19T12:48:34.956Z,26.39
2018-06-19T12:49:34.985Z,26.57
2018-06-19T12:50:34.828Z,26.53
2018-06-19T12:51:34.793Z,26.60
2018-06-19T12:52:34.690Z,26.64
2018-06-19T12:53:34.702Z,26.75
2018-06-19T12:54:34.558Z,26.71
2018-06-19T12:55:34.510Z,26.62
2018-06-19T12:56:34.429Z,26.64